Terminal Aerodrome Forecast
Issued by NWS

Home | Current Version | Previous Version | Text Only | Print | Product List | Glossary On
Versions: 1 2 3 4 5 6 7 8 9 10 11 12 13 14 15 16 17 18 19 20 21
011
FTUS45 KGJT 221121
TAFTEX
TAF
KTEX 221121Z 2212/2312 14004KT P6SM SCT060 BKN200
     FM221800 16009G16KT P6SM VCTS SCT070CB OVC100
     FM230300 16006KT P6SM VCSH SCT060 OVC080=

USA.gov is the U.S. government's official web portal to all federal, state and local government web resources and services.